Ely, Nevada Weather observations

Data are for observation ending at time listed.
 Day   Time    Ave.   Ave.  Ave.  Vector   Max.   Stn.    Total    Solar   Ave.  
  of    of     Air    Rel.  Wind   Wind    Wind   Baro.  Precip.   Rad.    Soil  
Year   Day     Temp.  Hum.  Speed  Dir.    Gust   Pres.                    Temp. 
2014   (PST)    F      %     mph   deg.    mph     mb.     in.     W/m2     F   
------------------------------------------------------------------------------
 113    1:10   29.2    64    4.0   238      7.0   806.2    0.00       0    40.9
 113    1:20   29.9    63    1.9   206      5.1   806.3    0.00       0    40.9
 113    1:30   30.5    61    0.7   295      5.0   806.3    0.00       0    40.9
 113    1:40   30.5    63    2.2    54      4.8   806.1    0.00       0    40.9
 113    1:50   29.8    67    0.7    89      3.4   806.3    0.00       0    41.0
 113    2:00   30.3    65    0.0     0      0.0   806.5    0.00       0    41.0
 113    2:10   31.2    62    0.1    33      1.8   806.4    0.00       0    41.0
 113    2:20   30.2    67    1.8    62      3.1   806.4    0.00       0    40.9
 113    2:30   29.8    70    1.3    62      2.2   806.4    0.00       0    40.8
 113    2:40   29.1    71    0.1   167      1.5   806.5    0.00       0    40.7
 113    2:50   27.4    75    2.5   165      5.8   806.5    0.00       0    40.6
 113    3:00   26.4    77    3.3   146      5.0   806.6    0.00       1    40.4
 113    3:10   26.6    77    3.8   162      5.3   806.5    0.00       0    40.2
 113    3:20   27.4    74    3.5   131      6.1   806.6    0.00       0    40.0
 113    3:30   26.4    77    5.1   130      7.9   806.6    0.00       0    39.8
 113    3:40   26.2    76    4.4   128      7.2   806.7    0.00       0    39.6
 113    3:50   25.6    77    6.0   127      7.9   806.8    0.00       0    39.4
 113    4:00   25.4    78    4.0   133      6.1   806.9    0.00       0    39.1
 113    4:10   25.3    77    5.6   138      7.5   806.9    0.00       0    38.9
 113    4:20   24.6    78    4.6   134      7.1   807.0    0.00       0    38.7
 113    4:30   23.7    80    4.6   146      6.3   807.0    0.00       1    38.5
 113    4:40   23.5    82    6.8   157     10.4   807.1    0.00       1    38.4
 113    4:50   23.9    82    6.0   166      8.5   807.2    0.00       5    38.2
 113    5:00   23.6    83    5.7   154      8.4   807.4    0.00       7    38.1
 113    5:10   23.5    83    4.9   158      7.4   807.6    0.00      16    38.0
 113    5:20   23.6    83    4.0   152      5.9   807.7    0.00      29    37.8
 113    5:30   23.9    83    4.0   128      6.4   807.8    0.00      34    37.7
 113    5:40   25.3    80    3.5   129      5.3   808.0    0.00      98    37.7
 113    5:50   27.2    76    2.6   133      4.6   808.1    0.00     159    37.8
 113    6:00   28.6    73    2.2   134      4.2   808.2    0.00     202    38.4
 113    6:10   30.2    70    1.3   132      3.1   808.3    0.00     240    38.8
 113    6:20   33.1    62    0.3   107      2.3   808.4    0.00     277    39.6
 113    6:30   35.7    52    0.0   196      0.7   808.5    0.00     312    41.2
 113    6:40   35.3    53    0.5   273      3.4   808.6    0.00     348    43.1
 113    6:50   35.6    53    0.8   278      4.0   808.8    0.00     386    45.0
 113    7:00   37.3    49    0.6   335      3.3   808.8    0.00     421    46.7
 113    7:10   38.1    46    1.4     8      6.2   808.9    0.00     459    48.2
 113    7:20   37.6    46    3.1   335      8.1   808.8    0.00     499    48.9
 113    7:30   37.6    46    3.4   352      7.8   808.9    0.00     536    48.4
 113    7:40   38.3    43    3.1   350      7.9   808.7    0.00     571    48.1
 113    7:50   38.5    42    2.6   337      6.0   808.7    0.00     607    48.3
 113    8:00   39.5    38    2.8   334      8.8   808.6    0.00     619    48.9
 113    8:10   39.2    38    3.7   323      8.2   808.7    0.00     647    49.7
 113    8:20   39.5    36    3.4   321     12.7   808.7    0.00     730    50.7
 113    8:30   40.3    32    7.9   348     13.2   808.8    0.00     806    51.8
 113    8:40   40.7    32    5.6   356     12.0   808.8    0.00     843    52.9
 113    8:50   41.0    33    8.7     4     14.3   808.9    0.00     917    54.1
 113    9:00   41.6    31    7.3   355     16.2   808.8    0.00     880    55.1
 113    9:10   41.3    31    8.4     7     14.5   808.9    0.00     871    56.0
 113    9:20   41.9    31    7.1   343     14.0   809.0    0.00     907    56.8
 113    9:30   41.7    31    4.8   278     10.4   809.1    0.00     907    57.7
 113    9:40   42.6    30    2.3   162      8.7   809.1    0.00     889    58.9
 113    9:50   42.8    30    4.9   274     11.5   809.1    0.00     960    60.2
 113   10:00   43.1    29    6.3   295     11.2   809.0    0.00     742    61.4
 113   10:10   41.8    30    7.1    16     13.3   809.0    0.00     447    61.7
 113   10:20   43.2    28    6.9     6     14.2   809.0    0.00    1033    61.0
 113   10:30   42.9    28    7.0   336     12.7   809.0    0.00    1031    61.4
 113   10:40   43.8    28    6.2   334     10.7   808.9    0.00    1039    62.2
 113   10:50   44.3    27    5.7    29      9.7   808.9    0.00    1044    63.1
 113   11:00   44.5    26    6.5   359     16.9   808.8    0.00    1039    63.8
 113   11:10   44.3    26    7.2   358     13.6   808.8    0.00    1049    64.4
 113   11:20   45.2    25    4.2   355     13.2   808.8    0.00    1053    64.8
 113   11:30   45.4    25    5.0   347     11.4   808.7    0.00    1057    65.4
 113   11:40   46.2    24    4.7    85     10.7   808.6    0.00    1056    66.1
 113   11:50   47.1    23    5.0    54     12.4   808.5    0.00    1055    66.7
 113   12:00   48.1    22    6.0    59     15.1   808.4    0.00    1050    67.2
 113   12:10   47.3    23    8.4   353     16.7   808.4    0.00    1049    67.7
 113   12:20   47.2    23    6.9     7     14.5   808.4    0.00    1043    67.5
 113   12:30   47.7    22    5.4    27     11.8   808.3    0.00    1043    66.5
 113   12:40   48.9    22    7.3   349     13.1   808.4    0.00    1033    65.4
 113   12:50   48.5    22    4.7    26     12.5   808.3    0.00    1024    65.2
 113   13:00   49.1    22    6.2   286     14.4   808.3    0.00    1018    65.6
 113   13:10   48.8    22    8.9     1     21.0   808.4    0.00     999    66.2
 113   13:20   49.7    22    8.3     9     16.9   808.4    0.00    1035    66.4
 113   13:30   49.6    22    6.8    27     13.4   808.5    0.00     977    66.5
 113   13:40   50.7    21    3.6    58      9.1   808.5    0.00     962    66.6
 113   13:50   50.3    22    5.4    20     12.8   808.5    0.00     915    66.9
 113   14:00   50.2    22    6.7    41     10.7   808.4    0.00     873    67.0
 113   14:10   50.3    22    4.9   265      8.9   808.3    0.00     872    66.8
 113   14:20   52.3    20    3.5   320     12.1   808.3    0.00     841    66.9
 113   14:30   52.0    20    7.7   313     13.9   808.2    0.00     792    67.0
 113   14:40   52.2    20    5.2   314     10.2   808.2    0.00     788    66.9
 113   14:50   51.5    20    7.4   334     14.4   808.1    0.00     749    66.7
 113   15:00   51.4    21    6.1   333     16.2   808.1    0.00     709    66.4
 113   15:10   52.5    20    8.0   353     14.8   808.0    0.00     673    65.9
 113   15:20   51.6    21    6.7     1     13.7   808.1    0.00     638    65.4
 113   15:30   52.2    20   10.3   319     19.3   808.0    0.00     605    64.7
 113   15:40   51.6    21    5.3   304     11.8   808.0    0.00     579    64.2
 113   15:50   52.2    20    7.0   358     12.2   808.1    0.00     541    63.7
 113   16:00   52.4    20    6.7   350     14.7   808.1    0.00     502    63.1
 113   16:10   52.7    20    9.2   319     13.7   808.1    0.00     461    62.4
 113   16:20   51.7    21    7.5   342     13.4   808.2    0.00     428    61.9
 113   16:30   51.5    21    7.3    11     11.7   808.2    0.00     389    61.4
 113   16:40   51.9    21    5.3    25      9.2   808.2    0.00     345    60.9
 113   16:50   51.8    21    7.4   343     11.7   808.3    0.00     313    60.5
 113   17:00   51.5    21    7.9   356     11.4   808.3    0.00     274    60.0
 113   17:10   51.5    21    3.5   352      7.7   808.3    0.00     237    59.6
 113   17:20   51.8    21    4.4   348      7.5   808.4    0.00     198    59.2
 113   17:30   51.4    21    6.2     3     10.1   808.3    0.00      69    58.8
 113   17:40   51.0    22    6.0   358      9.9   808.3    0.00      34    58.3
 113   17:50   51.1    22    7.5   346     11.2   808.2    0.00      29    57.9
 113   18:00   50.6    22    5.9   358      8.1   808.1    0.00      20    57.4
 113   18:10   50.0    23    6.1   345      8.9   808.2    0.00      20    57.0
 113   18:20   49.3    24    7.4   343     10.1   808.2    0.00       7    56.5
 113   18:30   48.4    25    6.2   342      8.3   808.2    0.00       7    55.9
 113   18:40   47.6    26    6.3   337      8.5   808.2    0.00       6    55.3
 113   18:50   46.1    27    4.6   341      6.1   808.3    0.00       1    54.7
 113   19:00   44.6    29    3.5   341      5.3   808.4    0.00       0    54.2
 113   19:10   43.5    30    0.9   315      2.3   808.4    0.00       0    53.6
 113   19:20   43.5    30    0.9   306      2.3   808.6    0.00       0    53.1
 113   19:30   43.0    30    1.1   266      2.5   808.7    0.00       0    52.6
 113   19:40   41.9    30    3.5   148      9.2   808.9    0.00       0    52.1
 113   19:50   37.4    37    7.2   143      9.3   809.0    0.00       0    51.6
 113   20:00   36.6    39    5.9   140      7.8   809.1    0.00       0    51.2
 113   20:10   36.0    40    6.7   139      8.3   809.2    0.00       0    50.7
 113   20:20   36.0    40    5.8   128      7.6   809.2    0.00       0    50.3
 113   20:30   34.8    44    8.0   139     10.5   809.3    0.00       1    49.8
 113   20:40   34.9    46    6.6   144      9.1   809.4    0.00       0    49.4
 113   20:50   33.7    47    7.7   147      9.5   809.4    0.00       1    49.0
 113   21:00   33.2    48    8.4   149     10.2   809.4    0.00       1    48.6
 113   21:10   33.3    48    9.1   153     11.4   809.5    0.00       0    48.2
 113   21:20   32.8    49    9.8   152     12.6   809.6    0.00       0    47.8
 113   21:30   33.0    48    9.4   154     11.0   809.7    0.00       1    47.5
 113   21:40   33.3    49    9.3   149     11.3   809.7    0.00       1    47.1
 113   21:50   33.8    48    8.1   154     10.2   809.6    0.00       1    46.8
 113   22:00   33.2    48    8.6   153     10.7   809.7    0.00       0    46.5
 113   22:10   32.5    50    8.1   147     11.0   809.8    0.00       1    46.3
 113   22:20   32.1    51    6.3   132      9.9   809.8    0.00       0    46.0
 113   22:30   32.8    49    8.2   146     10.4   809.8    0.00       0    45.7
 113   22:40   32.3    49    9.7   142     13.2   809.8    0.00       0    45.4
 113   22:50   32.1    48   10.7   147     14.2   809.8    0.00       0    45.2
 113   23:00   30.9    52   12.8   148     14.9   809.9    0.00       0    44.9
 113   23:10   30.9    51   12.1   148     14.4   809.9    0.00       0    44.7
 113   23:20   30.6    51   13.2   143     17.1   809.8    0.00       0    44.4
 113   23:30   30.3    51   13.0   145     16.1   809.8    0.00       0    44.1
 113   23:40   29.6    54   12.7   144     15.4   809.9    0.00       0    43.9
 113   23:50   29.3    54   13.3   147     17.2   809.8    0.00       0    43.6
 114    0:00   29.6    54   13.4   148     16.1   809.7    0.00       0    43.4
 114    0:10   29.5    54   11.3   143     15.3   809.8    0.00       0    43.1
 114    0:20   29.3    54   12.5   140     16.7   809.8    0.00       0    42.9
 114    0:30   29.0    55   12.3   142     16.7   809.8    0.00       0    42.7
 114    0:40   28.4    56   10.0   148     13.7   809.9    0.00       0    42.5
 114    0:50   27.9    55    9.6   153     12.2   809.8    0.00       0    42.2
 114    1:00   28.0    54   10.3   146     13.9   809.7    0.00       0    42.0

Return to Ely, Nevada graphs page.


Western Regional Climate Center,wrcc@dri.edu